sensor_id;sensor_type;location;lat;lon;timestamp;P1;durP1;ratioP1;P2;durP2;ratioP2
64950;SDS011;51482;47.014;7.652;2022-08-01T00:00:22;3.10;;;2.80;;
64950;SDS011;51482;47.014;7.652;2022-08-01T00:02:48;2.90;;;2.70;;
64950;SDS011;51482;47.014;7.652;2022-08-01T00:05:13;3.17;;;2.88;;
64950;SDS011;51482;47.014;7.652;2022-08-01T00:07:39;3.30;;;3.00;;
64950;SDS011;51482;47.014;7.652;2022-08-01T00:10:09;2.80;;;2.60;;
64950;SDS011;51482;47.014;7.652;2022-08-01T00:12:37;3.45;;;3.15;;
64950;SDS011;51482;47.014;7.652;2022-08-01T00:15:04;3.17;;;2.92;;
64950;SDS011;51482;47.014;7.652;2022-08-01T00:17:31;3.20;;;3.00;;
64950;SDS011;51482;47.014;7.652;2022-08-01T00:19:57;2.97;;;2.78;;
64950;SDS011;51482;47.014;7.652;2022-08-01T00:22:22;3.05;;;2.85;;
64950;SDS011;51482;47.014;7.652;2022-08-01T00:24:48;3.47;;;3.13;;
64950;SDS011;51482;47.014;7.652;2022-08-01T00:27:13;4.15;;;2.88;;
64950;SDS011;51482;47.014;7.652;2022-08-01T00:29:39;4.25;;;3.17;;
64950;SDS011;51482;47.014;7.652;2022-08-01T00:32:05;2.97;;;2.75;;
64950;SDS011;51482;47.014;7.652;2022-08-01T00:34:30;3.77;;;3.47;;
64950;SDS011;51482;47.014;7.652;2022-08-01T00:36:56;4.00;;;3.08;;
64950;SDS011;51482;47.014;7.652;2022-08-01T00:39:22;3.20;;;3.00;;
64950;SDS011;51482;47.014;7.652;2022-08-01T00:41:47;4.18;;;3.22;;
64950;SDS011;51482;47.014;7.652;2022-08-01T00:44:13;3.92;;;2.90;;
64950;SDS011;51482;47.014;7.652;2022-08-01T00:46:38;3.17;;;2.88;;
64950;SDS011;51482;47.014;7.652;2022-08-01T00:49:04;3.53;;;3.10;;
64950;SDS011;51482;47.014;7.652;2022-08-01T00:51:30;3.28;;;2.97;;
64950;SDS011;51482;47.014;7.652;2022-08-01T00:53:55;3.67;;;3.20;;
64950;SDS011;51482;47.014;7.652;2022-08-01T00:56:22;3.67;;;3.38;;
64950;SDS011;51482;47.014;7.652;2022-08-01T00:58:49;3.17;;;2.97;;
64950;SDS011;51482;47.014;7.652;2022-08-01T01:01:16;3.50;;;3.28;;
64950;SDS011;51482;47.014;7.652;2022-08-01T01:03:42;4.22;;;3.00;;
64950;SDS011;51482;47.014;7.652;2022-08-01T01:06:11;3.05;;;2.85;;
64950;SDS011;51482;47.014;7.652;2022-08-01T01:11:47;5.20;;;3.05;;
64950;SDS011;51482;47.014;7.652;2022-08-01T01:14:31;3.58;;;3.33;;
64950;SDS011;51482;47.014;7.652;2022-08-01T01:17:03;5.18;;;3.22;;
64950;SDS011;51482;47.014;7.652;2022-08-01T01:19:33;4.38;;;3.20;;
64950;SDS011;51482;47.014;7.652;2022-08-01T01:22:18;3.53;;;3.22;;
64950;SDS011;51482;47.014;7.652;2022-08-01T01:25:09;3.42;;;3.08;;
64950;SDS011;51482;47.014;7.652;2022-08-01T01:30:43;3.67;;;3.40;;
64950;SDS011;51482;47.014;7.652;2022-08-01T01:33:11;3.63;;;3.33;;
64950;SDS011;51482;47.014;7.652;2022-08-01T01:35:41;3.60;;;3.22;;
64950;SDS011;51482;47.014;7.652;2022-08-01T01:38:14;3.40;;;3.10;;
64950;SDS011;51482;47.014;7.652;2022-08-01T01:40:46;3.85;;;3.55;;
64950;SDS011;51482;47.014;7.652;2022-08-01T01:43:13;3.95;;;3.38;;
64950;SDS011;51482;47.014;7.652;2022-08-01T01:45:40;3.72;;;3.00;;
64950;SDS011;51482;47.014;7.652;2022-08-01T01:48:07;4.65;;;3.10;;
64950;SDS011;51482;47.014;7.652;2022-08-01T01:50:35;3.65;;;3.40;;
64950;SDS011;51482;47.014;7.652;2022-08-01T01:53:02;3.88;;;3.20;;
64950;SDS011;51482;47.014;7.652;2022-08-01T01:55:30;3.55;;;3.25;;
64950;SDS011;51482;47.014;7.652;2022-08-01T01:57:56;3.70;;;3.33;;
64950;SDS011;51482;47.014;7.652;2022-08-01T02:00:22;3.58;;;3.28;;
64950;SDS011;51482;47.014;7.652;2022-08-01T02:02:49;3.22;;;2.92;;
64950;SDS011;51482;47.014;7.652;2022-08-01T02:05:16;8.63;;;3.53;;
64950;SDS011;51482;47.014;7.652;2022-08-01T02:07:43;8.30;;;3.40;;
64950;SDS011;51482;47.014;7.652;2022-08-01T02:10:09;3.20;;;2.90;;
64950;SDS011;51482;47.014;7.652;2022-08-01T02:12:37;3.63;;;3.33;;
64950;SDS011;51482;47.014;7.652;2022-08-01T02:15:06;3.45;;;3.17;;
64950;SDS011;51482;47.014;7.652;2022-08-01T02:17:34;3.35;;;3.03;;
64950;SDS011;51482;47.014;7.652;2022-08-01T02:20:04;3.88;;;2.97;;
64950;SDS011;51482;47.014;7.652;2022-08-01T02:22:31;3.43;;;3.13;;
64950;SDS011;51482;47.014;7.652;2022-08-01T02:25:11;5.10;;;3.17;;
64950;SDS011;51482;47.014;7.652;2022-08-01T02:27:41;3.42;;;3.13;;
64950;SDS011;51482;47.014;7.652;2022-08-01T02:30:12;3.25;;;3.03;;
64950;SDS011;51482;47.014;7.652;2022-08-01T02:35:28;5.93;;;3.33;;
64950;SDS011;51482;47.014;7.652;2022-08-01T02:37:57;3.65;;;3.35;;
64950;SDS011;51482;47.014;7.652;2022-08-01T02:40:26;5.18;;;3.05;;
64950;SDS011;51482;47.014;7.652;2022-08-01T02:42:54;4.45;;;2.90;;
64950;SDS011;51482;47.014;7.652;2022-08-01T02:45:22;4.03;;;3.33;;
64950;SDS011;51482;47.014;7.652;2022-08-01T02:47:50;3.95;;;3.55;;
64950;SDS011;51482;47.014;7.652;2022-08-01T02:50:20;3.47;;;3.17;;
64950;SDS011;51482;47.014;7.652;2022-08-01T02:52:49;3.55;;;3.25;;
64950;SDS011;51482;47.014;7.652;2022-08-01T02:55:17;4.13;;;3.40;;
64950;SDS011;51482;47.014;7.652;2022-08-01T02:57:44;4.10;;;3.70;;
64950;SDS011;51482;47.014;7.652;2022-08-01T03:00:13;3.83;;;3.53;;
64950;SDS011;51482;47.014;7.652;2022-08-01T03:02:39;4.50;;;3.97;;
64950;SDS011;51482;47.014;7.652;2022-08-01T03:05:07;3.58;;;3.28;;
64950;SDS011;51482;47.014;7.652;2022-08-01T03:07:33;3.38;;;3.10;;
64950;SDS011;51482;47.014;7.652;2022-08-01T03:10:00;4.63;;;3.40;;
64950;SDS011;51482;47.014;7.652;2022-08-01T03:12:27;5.97;;;3.22;;
64950;SDS011;51482;47.014;7.652;2022-08-01T03:14:56;3.75;;;3.45;;
64950;SDS011;51482;47.014;7.652;2022-08-01T03:17:25;3.72;;;2.97;;
64950;SDS011;51482;47.014;7.652;2022-08-01T03:19:52;3.75;;;3.45;;
64950;SDS011;51482;47.014;7.652;2022-08-01T03:22:18;3.50;;;3.20;;
64950;SDS011;51482;47.014;7.652;2022-08-01T03:24:48;4.50;;;3.60;;
64950;SDS011;51482;47.014;7.652;2022-08-01T03:27:16;3.60;;;3.30;;
64950;SDS011;51482;47.014;7.652;2022-08-01T03:29:44;3.30;;;3.10;;
64950;SDS011;51482;47.014;7.652;2022-08-01T03:32:11;6.00;;;3.53;;
64950;SDS011;51482;47.014;7.652;2022-08-01T03:34:38;3.63;;;3.33;;
64950;SDS011;51482;47.014;7.652;2022-08-01T03:37:12;3.80;;;3.40;;
64950;SDS011;51482;47.014;7.652;2022-08-01T03:42:35;3.67;;;3.28;;
64950;SDS011;51482;47.014;7.652;2022-08-01T03:45:07;3.63;;;3.17;;
64950;SDS011;51482;47.014;7.652;2022-08-01T03:47:35;4.15;;;3.75;;
64950;SDS011;51482;47.014;7.652;2022-08-01T03:50:03;4.40;;;3.35;;
64950;SDS011;51482;47.014;7.652;2022-08-01T03:52:31;3.92;;;3.53;;
64950;SDS011;51482;47.014;7.652;2022-08-01T03:55:00;3.85;;;3.55;;
64950;SDS011;51482;47.014;7.652;2022-08-01T03:57:30;4.60;;;3.42;;
64950;SDS011;51482;47.014;7.652;2022-08-01T03:59:59;3.97;;;3.60;;
64950;SDS011;51482;47.014;7.652;2022-08-01T04:02:28;4.30;;;3.90;;
64950;SDS011;51482;47.014;7.652;2022-08-01T04:04:54;3.95;;;3.63;;
64950;SDS011;51482;47.014;7.652;2022-08-01T04:07:21;3.85;;;3.28;;
64950;SDS011;51482;47.014;7.652;2022-08-01T04:09:48;3.80;;;3.50;;
64950;SDS011;51482;47.014;7.652;2022-08-01T04:12:13;3.65;;;3.35;;
64950;SDS011;51482;47.014;7.652;2022-08-01T04:14:39;4.15;;;3.75;;
64950;SDS011;51482;47.014;7.652;2022-08-01T04:17:04;3.92;;;3.38;;
64950;SDS011;51482;47.014;7.652;2022-08-01T04:19:30;3.78;;;3.42;;
64950;SDS011;51482;47.014;7.652;2022-08-01T04:21:56;4.28;;;3.22;;
64950;SDS011;51482;47.014;7.652;2022-08-01T04:24:21;5.65;;;3.50;;
64950;SDS011;51482;47.014;7.652;2022-08-01T04:26:49;3.65;;;3.35;;
64950;SDS011;51482;47.014;7.652;2022-08-01T04:29:16;5.80;;;3.47;;
64950;SDS011;51482;47.014;7.652;2022-08-01T04:31:45;3.60;;;3.30;;
64950;SDS011;51482;47.014;7.652;2022-08-01T04:34:14;3.80;;;3.50;;
64950;SDS011;51482;47.014;7.652;2022-08-01T04:36:42;4.97;;;3.70;;
64950;SDS011;51482;47.014;7.652;2022-08-01T04:39:10;3.58;;;3.30;;
64950;SDS011;51482;47.014;7.652;2022-08-01T04:41:38;5.43;;;4.45;;
64950;SDS011;51482;47.014;7.652;2022-08-01T04:44:04;5.30;;;3.50;;
64950;SDS011;51482;47.014;7.652;2022-08-01T04:46:31;3.88;;;3.58;;
64950;SDS011;51482;47.014;7.652;2022-08-01T04:48:59;3.80;;;3.50;;
64950;SDS011;51482;47.014;7.652;2022-08-01T04:51:27;3.75;;;3.38;;
64950;SDS011;51482;47.014;7.652;2022-08-01T04:53:53;6.07;;;3.78;;
64950;SDS011;51482;47.014;7.652;2022-08-01T04:56:19;3.58;;;3.28;;
64950;SDS011;51482;47.014;7.652;2022-08-01T04:58:45;4.00;;;3.70;;
64950;SDS011;51482;47.014;7.652;2022-08-01T05:01:11;3.42;;;3.13;;
64950;SDS011;51482;47.014;7.652;2022-08-01T05:03:37;3.88;;;3.58;;
64950;SDS011;51482;47.014;7.652;2022-08-01T05:06:03;4.35;;;3.40;;
64950;SDS011;51482;47.014;7.652;2022-08-01T05:08:29;4.15;;;3.20;;
64950;SDS011;51482;47.014;7.652;2022-08-01T05:10:54;3.60;;;3.30;;
64950;SDS011;51482;47.014;7.652;2022-08-01T05:13:20;4.20;;;3.80;;
64950;SDS011;51482;47.014;7.652;2022-08-01T05:15:46;4.13;;;3.38;;
64950;SDS011;51482;47.014;7.652;2022-08-01T05:18:11;4.32;;;3.92;;
64950;SDS011;51482;47.014;7.652;2022-08-01T05:20:37;4.93;;;3.50;;
64950;SDS011;51482;47.014;7.652;2022-08-01T05:23:03;3.38;;;3.03;;
64950;SDS011;51482;47.014;7.652;2022-08-01T05:25:29;4.95;;;3.22;;
64950;SDS011;51482;47.014;7.652;2022-08-01T05:27:55;3.63;;;3.08;;
64950;SDS011;51482;47.014;7.652;2022-08-01T05:30:21;3.35;;;3.15;;
64950;SDS011;51482;47.014;7.652;2022-08-01T05:32:46;3.72;;;3.25;;
64950;SDS011;51482;47.014;7.652;2022-08-01T05:35:12;3.20;;;2.97;;
64950;SDS011;51482;47.014;7.652;2022-08-01T05:37:37;3.72;;;2.97;;
64950;SDS011;51482;47.014;7.652;2022-08-01T05:40:03;6.38;;;3.40;;
64950;SDS011;51482;47.014;7.652;2022-08-01T05:42:29;3.22;;;2.78;;
64950;SDS011;51482;47.014;7.652;2022-08-01T05:44:55;2.95;;;2.75;;
64950;SDS011;51482;47.014;7.652;2022-08-01T05:47:21;3.55;;;3.00;;
64950;SDS011;51482;47.014;7.652;2022-08-01T05:49:46;3.28;;;2.90;;
64950;SDS011;51482;47.014;7.652;2022-08-01T05:52:12;4.15;;;3.15;;
64950;SDS011;51482;47.014;7.652;2022-08-01T05:54:38;3.95;;;3.30;;
64950;SDS011;51482;47.014;7.652;2022-08-01T05:57:04;3.17;;;2.83;;
64950;SDS011;51482;47.014;7.652;2022-08-01T05:59:30;3.85;;;3.42;;
64950;SDS011;51482;47.014;7.652;2022-08-01T06:01:56;4.28;;;3.38;;
64950;SDS011;51482;47.014;7.652;2022-08-01T06:04:22;3.20;;;2.92;;
64950;SDS011;51482;47.014;7.652;2022-08-01T06:06:47;3.30;;;3.00;;
64950;SDS011;51482;47.014;7.652;2022-08-01T06:09:13;3.75;;;3.13;;
64950;SDS011;51482;47.014;7.652;2022-08-01T06:11:39;6.50;;;3.78;;
64950;SDS011;51482;47.014;7.652;2022-08-01T06:14:05;3.75;;;3.40;;
64950;SDS011;51482;47.014;7.652;2022-08-01T06:16:30;3.13;;;2.85;;
64950;SDS011;51482;47.014;7.652;2022-08-01T06:18:56;3.45;;;3.15;;
64950;SDS011;51482;47.014;7.652;2022-08-01T06:21:21;3.38;;;3.08;;
64950;SDS011;51482;47.014;7.652;2022-08-01T06:23:47;3.92;;;3.63;;
64950;SDS011;51482;47.014;7.652;2022-08-01T06:26:13;3.33;;;2.88;;
64950;SDS011;51482;47.014;7.652;2022-08-01T06:28:38;3.15;;;2.92;;
64950;SDS011;51482;47.014;7.652;2022-08-01T06:31:04;3.38;;;3.08;;
64950;SDS011;51482;47.014;7.652;2022-08-01T06:33:30;3.33;;;3.03;;
64950;SDS011;51482;47.014;7.652;2022-08-01T06:35:55;3.50;;;3.20;;
64950;SDS011;51482;47.014;7.652;2022-08-01T06:38:21;3.75;;;3.30;;
64950;SDS011;51482;47.014;7.652;2022-08-01T06:40:47;3.17;;;2.97;;
64950;SDS011;51482;47.014;7.652;2022-08-01T06:43:12;4.60;;;3.38;;
64950;SDS011;51482;47.014;7.652;2022-08-01T06:45:38;5.10;;;3.10;;
64950;SDS011;51482;47.014;7.652;2022-08-01T06:48:04;4.30;;;2.93;;
64950;SDS011;51482;47.014;7.652;2022-08-01T06:50:30;3.85;;;3.20;;
64950;SDS011;51482;47.014;7.652;2022-08-01T06:52:56;3.60;;;3.30;;
64950;SDS011;51482;47.014;7.652;2022-08-01T06:55:22;3.35;;;3.05;;
64950;SDS011;51482;47.014;7.652;2022-08-01T06:57:48;6.68;;;3.13;;
64950;SDS011;51482;47.014;7.652;2022-08-01T07:00:16;4.50;;;2.88;;
64950;SDS011;51482;47.014;7.652;2022-08-01T07:02:44;3.20;;;2.95;;
64950;SDS011;51482;47.014;7.652;2022-08-01T07:05:10;3.17;;;2.88;;
64950;SDS011;51482;47.014;7.652;2022-08-01T07:07:37;2.90;;;2.70;;
64950;SDS011;51482;47.014;7.652;2022-08-01T07:10:02;3.10;;;2.80;;
64950;SDS011;51482;47.014;7.652;2022-08-01T07:12:28;3.38;;;3.08;;
64950;SDS011;51482;47.014;7.652;2022-08-01T07:14:54;3.20;;;3.00;;
64950;SDS011;51482;47.014;7.652;2022-08-01T07:17:20;3.30;;;3.00;;
64950;SDS011;51482;47.014;7.652;2022-08-01T07:19:46;24.58;;;4.38;;
64950;SDS011;51482;47.014;7.652;2022-08-01T07:22:12;3.38;;;2.83;;
64950;SDS011;51482;47.014;7.652;2022-08-01T07:24:38;5.72;;;3.20;;
64950;SDS011;51482;47.014;7.652;2022-08-01T07:27:04;3.22;;;2.92;;
64950;SDS011;51482;47.014;7.652;2022-08-01T07:29:30;4.15;;;3.25;;
64950;SDS011;51482;47.014;7.652;2022-08-01T07:31:56;5.95;;;2.83;;
64950;SDS011;51482;47.014;7.652;2022-08-01T07:34:22;15.68;;;4.32;;
64950;SDS011;51482;47.014;7.652;2022-08-01T07:36:49;3.75;;;3.03;;
64950;SDS011;51482;47.014;7.652;2022-08-01T07:39:15;3.08;;;2.88;;
64950;SDS011;51482;47.014;7.652;2022-08-01T07:41:41;4.35;;;3.05;;
64950;SDS011;51482;47.014;7.652;2022-08-01T07:44:06;3.55;;;3.20;;
64950;SDS011;51482;47.014;7.652;2022-08-01T07:46:32;4.45;;;2.88;;
64950;SDS011;51482;47.014;7.652;2022-08-01T07:48:58;4.25;;;2.80;;
64950;SDS011;51482;47.014;7.652;2022-08-01T07:51:23;3.05;;;2.72;;
64950;SDS011;51482;47.014;7.652;2022-08-01T07:53:49;3.38;;;3.03;;
64950;SDS011;51482;47.014;7.652;2022-08-01T07:56:14;3.10;;;2.80;;
64950;SDS011;51482;47.014;7.652;2022-08-01T07:58:40;4.28;;;3.88;;
64950;SDS011;51482;47.014;7.652;2022-08-01T08:01:06;3.90;;;2.88;;
64950;SDS011;51482;47.014;7.652;2022-08-01T08:03:31;2.97;;;2.70;;
64950;SDS011;51482;47.014;7.652;2022-08-01T08:05:57;3.25;;;2.72;;
64950;SDS011;51482;47.014;7.652;2022-08-01T08:08:22;3.25;;;2.75;;
64950;SDS011;51482;47.014;7.652;2022-08-01T08:10:48;3.58;;;3.25;;
64950;SDS011;51482;47.014;7.652;2022-08-01T08:13:14;3.05;;;2.70;;
64950;SDS011;51482;47.014;7.652;2022-08-01T08:15:40;3.17;;;2.50;;
64950;SDS011;51482;47.014;7.652;2022-08-01T08:18:05;3.70;;;2.53;;
64950;SDS011;51482;47.014;7.652;2022-08-01T08:20:31;3.38;;;2.47;;
64950;SDS011;51482;47.014;7.652;2022-08-01T08:22:56;2.83;;;2.50;;
64950;SDS011;51482;47.014;7.652;2022-08-01T08:25:23;3.00;;;2.78;;
64950;SDS011;51482;47.014;7.652;2022-08-01T08:27:49;2.75;;;2.40;;
64950;SDS011;51482;47.014;7.652;2022-08-01T08:30:15;2.85;;;2.65;;
64950;SDS011;51482;47.014;7.652;2022-08-01T08:32:41;2.70;;;2.50;;
64950;SDS011;51482;47.014;7.652;2022-08-01T08:35:06;4.10;;;2.58;;
64950;SDS011;51482;47.014;7.652;2022-08-01T08:37:33;3.67;;;2.72;;
64950;SDS011;51482;47.014;7.652;2022-08-01T08:39:59;2.25;;;2.15;;
64950;SDS011;51482;47.014;7.652;2022-08-01T08:42:25;2.90;;;2.70;;
64950;SDS011;51482;47.014;7.652;2022-08-01T08:44:51;2.72;;;2.53;;
64950;SDS011;51482;47.014;7.652;2022-08-01T08:47:19;2.50;;;2.30;;
64950;SDS011;51482;47.014;7.652;2022-08-01T08:49:46;3.20;;;2.70;;
64950;SDS011;51482;47.014;7.652;2022-08-01T08:52:13;2.67;;;2.47;;
64950;SDS011;51482;47.014;7.652;2022-08-01T08:54:40;3.05;;;2.83;;
64950;SDS011;51482;47.014;7.652;2022-08-01T08:57:06;3.05;;;2.85;;
64950;SDS011;51482;47.014;7.652;2022-08-01T08:59:32;3.03;;;2.42;;
64950;SDS011;51482;47.014;7.652;2022-08-01T09:01:58;2.67;;;2.47;;
64950;SDS011;51482;47.014;7.652;2022-08-01T09:04:24;2.60;;;2.40;;
64950;SDS011;51482;47.014;7.652;2022-08-01T09:06:51;3.10;;;2.80;;
64950;SDS011;51482;47.014;7.652;2022-08-01T09:09:17;2.75;;;2.55;;
64950;SDS011;51482;47.014;7.652;2022-08-01T09:11:42;3.25;;;2.97;;
64950;SDS011;51482;47.014;7.652;2022-08-01T09:14:09;3.60;;;3.30;;
64950;SDS011;51482;47.014;7.652;2022-08-01T09:16:41;3.75;;;2.90;;
64950;SDS011;51482;47.014;7.652;2022-08-01T09:19:13;2.85;;;2.40;;
64950;SDS011;51482;47.014;7.652;2022-08-01T09:21:54;2.85;;;2.65;;
64950;SDS011;51482;47.014;7.652;2022-08-01T09:24:28;2.70;;;2.50;;
64950;SDS011;51482;47.014;7.652;2022-08-01T09:26:55;3.20;;;2.47;;
64950;SDS011;51482;47.014;7.652;2022-08-01T09:29:22;2.40;;;2.20;;
64950;SDS011;51482;47.014;7.652;2022-08-01T09:31:50;5.15;;;3.22;;
64950;SDS011;51482;47.014;7.652;2022-08-01T09:34:16;2.50;;;2.15;;
64950;SDS011;51482;47.014;7.652;2022-08-01T09:36:50;3.45;;;2.50;;
64950;SDS011;51482;47.014;7.652;2022-08-01T09:39:21;4.78;;;2.60;;
64950;SDS011;51482;47.014;7.652;2022-08-01T09:41:48;3.08;;;2.40;;
64950;SDS011;51482;47.014;7.652;2022-08-01T09:44:14;4.05;;;2.72;;
64950;SDS011;51482;47.014;7.652;2022-08-01T09:46:49;2.85;;;2.45;;
64950;SDS011;51482;47.014;7.652;2022-08-01T09:49:16;3.03;;;2.67;;
64950;SDS011;51482;47.014;7.652;2022-08-01T09:51:56;3.28;;;2.25;;
64950;SDS011;51482;47.014;7.652;2022-08-01T09:54:32;2.53;;;2.33;;
64950;SDS011;51482;47.014;7.652;2022-08-01T09:57:15;2.85;;;2.55;;
64950;SDS011;51482;47.014;7.652;2022-08-01T09:59:43;2.72;;;2.30;;
64950;SDS011;51482;47.014;7.652;2022-08-01T10:02:10;2.45;;;2.25;;
64950;SDS011;51482;47.014;7.652;2022-08-01T10:04:45;2.33;;;2.10;;
64950;SDS011;51482;47.014;7.652;2022-08-01T10:07:12;2.85;;;2.10;;
64950;SDS011;51482;47.014;7.652;2022-08-01T10:09:41;2.72;;;2.35;;
64950;SDS011;51482;47.014;7.652;2022-08-01T10:12:10;2.65;;;2.45;;
64950;SDS011;51482;47.014;7.652;2022-08-01T10:14:39;2.65;;;2.35;;
64950;SDS011;51482;47.014;7.652;2022-08-01T10:17:06;2.60;;;2.40;;
64950;SDS011;51482;47.014;7.652;2022-08-01T10:19:34;2.53;;;2.30;;
64950;SDS011;51482;47.014;7.652;2022-08-01T10:22:02;2.50;;;2.30;;
64950;SDS011;51482;47.014;7.652;2022-08-01T10:24:34;3.65;;;2.50;;
64950;SDS011;51482;47.014;7.652;2022-08-01T10:27:03;3.60;;;2.40;;
64950;SDS011;51482;47.014;7.652;2022-08-01T10:29:31;2.67;;;2.17;;
64950;SDS011;51482;47.014;7.652;2022-08-01T10:32:12;2.72;;;2.05;;
64950;SDS011;51482;47.014;7.652;2022-08-01T10:34:37;2.00;;;1.90;;
64950;SDS011;51482;47.014;7.652;2022-08-01T10:37:04;1.88;;;1.77;;
64950;SDS011;51482;47.014;7.652;2022-08-01T10:39:31;2.28;;;2.17;;
64950;SDS011;51482;47.014;7.652;2022-08-01T10:41:58;1.77;;;1.67;;
64950;SDS011;51482;47.014;7.652;2022-08-01T10:44:25;2.58;;;2.38;;
64950;SDS011;51482;47.014;7.652;2022-08-01T10:46:53;2.30;;;2.10;;
64950;SDS011;51482;47.014;7.652;2022-08-01T10:49:25;2.30;;;2.10;;
64950;SDS011;51482;47.014;7.652;2022-08-01T10:51:53;2.08;;;1.98;;
64950;SDS011;51482;47.014;7.652;2022-08-01T10:54:19;3.28;;;2.25;;
64950;SDS011;51482;47.014;7.652;2022-08-01T10:56:50;3.33;;;2.08;;
64950;SDS011;51482;47.014;7.652;2022-08-01T10:59:21;3.25;;;2.10;;
64950;SDS011;51482;47.014;7.652;2022-08-01T11:02:03;2.60;;;1.90;;
64950;SDS011;51482;47.014;7.652;2022-08-01T11:04:34;2.15;;;1.88;;
64950;SDS011;51482;47.014;7.652;2022-08-01T11:12:05;4.35;;;2.10;;
64950;SDS011;51482;47.014;7.652;2022-08-01T11:14:34;1.98;;;1.88;;
64950;SDS011;51482;47.014;7.652;2022-08-01T11:20:16;3.35;;;2.10;;
64950;SDS011;51482;47.014;7.652;2022-08-01T11:33:07;1.83;;;1.70;;
64950;SDS011;51482;47.014;7.652;2022-08-01T11:35:33;10.13;;;2.10;;
64950;SDS011;51482;47.014;7.652;2022-08-01T11:41:08;2.78;;;2.10;;
64950;SDS011;51482;47.014;7.652;2022-08-01T11:49:31;1.92;;;1.83;;
64950;SDS011;51482;47.014;7.652;2022-08-01T11:55:06;2.13;;;1.92;;
64950;SDS011;51482;47.014;7.652;2022-08-01T11:57:34;2.67;;;1.85;;
64950;SDS011;51482;47.014;7.652;2022-08-01T12:00:14;1.88;;;1.77;;
64950;SDS011;51482;47.014;7.652;2022-08-01T12:02:42;2.17;;;1.90;;
64950;SDS011;51482;47.014;7.652;2022-08-01T12:05:12;2.20;;;2.00;;
64950;SDS011;51482;47.014;7.652;2022-08-01T12:07:39;2.70;;;1.80;;
64950;SDS011;51482;47.014;7.652;2022-08-01T12:10:13;4.65;;;1.67;;
64950;SDS011;51482;47.014;7.652;2022-08-01T12:12:44;4.88;;;1.15;;
64950;SDS011;51482;47.014;7.652;2022-08-01T12:15:11;1.38;;;1.27;;
64950;SDS011;51482;47.014;7.652;2022-08-01T12:20:09;1.38;;;1.38;;
64950;SDS011;51482;47.014;7.652;2022-08-01T12:22:36;2.63;;;1.20;;
64950;SDS011;51482;47.014;7.652;2022-08-01T12:25:09;1.38;;;0.95;;
64950;SDS011;51482;47.014;7.652;2022-08-01T12:27:36;1.10;;;1.10;;
64950;SDS011;51482;47.014;7.652;2022-08-01T12:30:04;1.23;;;1.02;;
64950;SDS011;51482;47.014;7.652;2022-08-01T12:32:32;2.80;;;1.48;;
64950;SDS011;51482;47.014;7.652;2022-08-01T12:35:04;1.52;;;1.20;;
64950;SDS011;51482;47.014;7.652;2022-08-01T12:37:31;0.60;;;0.60;;
64950;SDS011;51482;47.014;7.652;2022-08-01T12:40:01;1.20;;;1.17;;
64950;SDS011;51482;47.014;7.652;2022-08-01T12:42:36;1.00;;;1.00;;
64950;SDS011;51482;47.014;7.652;2022-08-01T12:45:02;1.15;;;1.00;;
64950;SDS011;51482;47.014;7.652;2022-08-01T12:47:28;1.02;;;1.02;;
64950;SDS011;51482;47.014;7.652;2022-08-01T12:49:54;1.00;;;1.00;;
64950;SDS011;51482;47.014;7.652;2022-08-01T12:52:20;1.10;;;1.00;;
64950;SDS011;51482;47.014;7.652;2022-08-01T12:55:04;1.00;;;1.00;;
64950;SDS011;51482;47.014;7.652;2022-08-01T12:57:33;0.95;;;0.95;;
64950;SDS011;51482;47.014;7.652;2022-08-01T13:00:06;1.27;;;0.95;;
64950;SDS011;51482;47.014;7.652;2022-08-01T13:02:32;1.10;;;1.10;;
64950;SDS011;51482;47.014;7.652;2022-08-01T13:04:58;1.60;;;1.20;;
64950;SDS011;51482;47.014;7.652;2022-08-01T13:07:37;2.17;;;1.50;;
64950;SDS011;51482;47.014;7.652;2022-08-01T13:10:27;2.78;;;1.20;;
64950;SDS011;51482;47.014;7.652;2022-08-01T13:12:55;1.30;;;1.30;;
64950;SDS011;51482;47.014;7.652;2022-08-01T13:17:57;1.52;;;1.42;;
64950;SDS011;51482;47.014;7.652;2022-08-01T13:20:27;1.10;;;1.10;;
64950;SDS011;51482;47.014;7.652;2022-08-01T13:22:54;1.50;;;1.40;;
64950;SDS011;51482;47.014;7.652;2022-08-01T13:25:20;1.30;;;1.27;;
64950;SDS011;51482;47.014;7.652;2022-08-01T13:27:46;1.02;;;0.93;;
64950;SDS011;51482;47.014;7.652;2022-08-01T13:30:18;1.67;;;1.40;;
64950;SDS011;51482;47.014;7.652;2022-08-01T13:32:57;1.38;;;1.20;;
64950;SDS011;51482;47.014;7.652;2022-08-01T13:35:23;1.52;;;1.42;;
64950;SDS011;51482;47.014;7.652;2022-08-01T13:37:49;1.15;;;1.13;;
64950;SDS011;51482;47.014;7.652;2022-08-01T13:40:22;1.33;;;1.23;;
64950;SDS011;51482;47.014;7.652;2022-08-01T13:42:49;1.40;;;1.30;;
64950;SDS011;51482;47.014;7.652;2022-08-01T13:45:14;1.20;;;1.20;;
64950;SDS011;51482;47.014;7.652;2022-08-01T13:47:41;1.45;;;1.35;;
64950;SDS011;51482;47.014;7.652;2022-08-01T13:50:09;1.40;;;1.30;;
64950;SDS011;51482;47.014;7.652;2022-08-01T13:52:35;1.30;;;1.20;;
64950;SDS011;51482;47.014;7.652;2022-08-01T13:55:00;1.35;;;1.25;;
64950;SDS011;51482;47.014;7.652;2022-08-01T13:57:26;1.90;;;1.48;;
64950;SDS011;51482;47.014;7.652;2022-08-01T13:59:52;1.30;;;1.20;;
64950;SDS011;51482;47.014;7.652;2022-08-01T14:02:18;1.50;;;1.40;;
64950;SDS011;51482;47.014;7.652;2022-08-01T14:04:44;1.50;;;1.40;;
64950;SDS011;51482;47.014;7.652;2022-08-01T14:07:09;1.40;;;1.30;;
64950;SDS011;51482;47.014;7.652;2022-08-01T14:09:36;1.45;;;1.35;;
64950;SDS011;51482;47.014;7.652;2022-08-01T14:12:01;1.70;;;1.60;;
64950;SDS011;51482;47.014;7.652;2022-08-01T14:14:27;1.88;;;1.40;;
64950;SDS011;51482;47.014;7.652;2022-08-01T14:16:53;1.95;;;1.85;;
64950;SDS011;51482;47.014;7.652;2022-08-01T14:19:18;2.47;;;1.60;;
64950;SDS011;51482;47.014;7.652;2022-08-01T14:21:44;1.48;;;1.38;;
64950;SDS011;51482;47.014;7.652;2022-08-01T14:24:09;1.50;;;1.40;;
64950;SDS011;51482;47.014;7.652;2022-08-01T14:26:35;1.58;;;1.48;;
64950;SDS011;51482;47.014;7.652;2022-08-01T14:29:00;1.70;;;1.60;;
64950;SDS011;51482;47.014;7.652;2022-08-01T14:31:26;1.88;;;1.52;;
64950;SDS011;51482;47.014;7.652;2022-08-01T14:33:54;1.60;;;1.50;;
64950;SDS011;51482;47.014;7.652;2022-08-01T14:36:19;1.70;;;1.60;;
64950;SDS011;51482;47.014;7.652;2022-08-01T14:38:45;1.65;;;1.55;;
64950;SDS011;51482;47.014;7.652;2022-08-01T14:41:10;1.60;;;1.50;;
64950;SDS011;51482;47.014;7.652;2022-08-01T14:43:36;1.80;;;1.50;;
64950;SDS011;51482;47.014;7.652;2022-08-01T14:46:02;1.40;;;1.30;;
64950;SDS011;51482;47.014;7.652;2022-08-01T14:48:28;1.60;;;1.50;;
64950;SDS011;51482;47.014;7.652;2022-08-01T14:50:54;2.22;;;1.55;;
64950;SDS011;51482;47.014;7.652;2022-08-01T14:53:19;1.50;;;1.40;;
64950;SDS011;51482;47.014;7.652;2022-08-01T14:55:45;1.85;;;1.75;;
64950;SDS011;51482;47.014;7.652;2022-08-01T14:58:10;1.90;;;1.70;;
64950;SDS011;51482;47.014;7.652;2022-08-01T15:00:36;1.75;;;1.65;;
64950;SDS011;51482;47.014;7.652;2022-08-01T15:03:03;1.77;;;1.67;;
64950;SDS011;51482;47.014;7.652;2022-08-01T15:05:28;1.67;;;1.58;;
64950;SDS011;51482;47.014;7.652;2022-08-01T15:07:55;4.82;;;1.92;;
64950;SDS011;51482;47.014;7.652;2022-08-01T15:10:21;3.20;;;1.70;;
64950;SDS011;51482;47.014;7.652;2022-08-01T15:12:47;1.75;;;1.65;;
64950;SDS011;51482;47.014;7.652;2022-08-01T15:15:13;1.90;;;1.80;;
64950;SDS011;51482;47.014;7.652;2022-08-01T15:17:38;2.30;;;1.80;;
64950;SDS011;51482;47.014;7.652;2022-08-01T15:20:05;2.10;;;2.00;;
64950;SDS011;51482;47.014;7.652;2022-08-01T15:22:32;1.92;;;1.83;;
64950;SDS011;51482;47.014;7.652;2022-08-01T15:24:58;1.73;;;1.63;;
64950;SDS011;51482;47.014;7.652;2022-08-01T15:27:25;1.90;;;1.80;;
64950;SDS011;51482;47.014;7.652;2022-08-01T15:29:51;2.00;;;1.80;;
64950;SDS011;51482;47.014;7.652;2022-08-01T15:32:18;3.33;;;2.78;;
64950;SDS011;51482;47.014;7.652;2022-08-01T15:34:44;4.55;;;2.70;;
64950;SDS011;51482;47.014;7.652;2022-08-01T15:37:10;2.30;;;2.20;;